sensor_id;sensor_type;location;lat;lon;timestamp;P1;durP1;ratioP1;P2;durP2;ratioP2
73642;SDS011;61938;48.652;9.292;2023-11-21T00:02:11;10.75;;;2.70;;
73642;SDS011;61938;48.652;9.292;2023-11-21T00:04:37;7.45;;;2.60;;
73642;SDS011;61938;48.652;9.292;2023-11-21T00:07:02;7.43;;;2.42;;
73642;SDS011;61938;48.652;9.292;2023-11-21T00:09:28;10.27;;;2.50;;
73642;SDS011;61938;48.652;9.292;2023-11-21T00:11:53;8.38;;;2.28;;
73642;SDS011;61938;48.652;9.292;2023-11-21T00:14:19;13.15;;;2.88;;
73642;SDS011;61938;48.652;9.292;2023-11-21T00:16:44;6.00;;;2.63;;
73642;SDS011;61938;48.652;9.292;2023-11-21T00:19:10;9.05;;;2.40;;
73642;SDS011;61938;48.652;9.292;2023-11-21T00:21:36;10.05;;;2.63;;
73642;SDS011;61938;48.652;9.292;2023-11-21T00:24:02;13.70;;;2.88;;
73642;SDS011;61938;48.652;9.292;2023-11-21T00:26:28;12.57;;;2.63;;
73642;SDS011;61938;48.652;9.292;2023-11-21T00:28:53;7.43;;;3.08;;
73642;SDS011;61938;48.652;9.292;2023-11-21T00:31:19;11.82;;;3.20;;
73642;SDS011;61938;48.652;9.292;2023-11-21T00:33:45;9.93;;;2.97;;
73642;SDS011;61938;48.652;9.292;2023-11-21T00:36:10;6.07;;;2.20;;
73642;SDS011;61938;48.652;9.292;2023-11-21T00:38:36;8.98;;;3.03;;
73642;SDS011;61938;48.652;9.292;2023-11-21T00:41:04;10.63;;;3.03;;
73642;SDS011;61938;48.652;9.292;2023-11-21T00:43:31;11.45;;;3.05;;
73642;SDS011;61938;48.652;9.292;2023-11-21T00:45:58;21.88;;;2.95;;
73642;SDS011;61938;48.652;9.292;2023-11-21T00:48:23;12.80;;;2.50;;
73642;SDS011;61938;48.652;9.292;2023-11-21T00:50:49;8.73;;;2.90;;
73642;SDS011;61938;48.652;9.292;2023-11-21T00:53:15;15.10;;;3.25;;
73642;SDS011;61938;48.652;9.292;2023-11-21T00:55:40;7.07;;;2.75;;
73642;SDS011;61938;48.652;9.292;2023-11-21T00:58:06;5.72;;;2.55;;
73642;SDS011;61938;48.652;9.292;2023-11-21T01:00:32;9.05;;;3.65;;
73642;SDS011;61938;48.652;9.292;2023-11-21T01:02:58;8.10;;;3.13;;
73642;SDS011;61938;48.652;9.292;2023-11-21T01:05:24;9.07;;;3.00;;
73642;SDS011;61938;48.652;9.292;2023-11-21T01:07:50;8.48;;;2.85;;
73642;SDS011;61938;48.652;9.292;2023-11-21T01:10:15;15.50;;;3.05;;
73642;SDS011;61938;48.652;9.292;2023-11-21T01:12:42;7.00;;;2.50;;
73642;SDS011;61938;48.652;9.292;2023-11-21T01:15:08;9.02;;;2.90;;
73642;SDS011;61938;48.652;9.292;2023-11-21T01:17:34;6.93;;;2.40;;
73642;SDS011;61938;48.652;9.292;2023-11-21T01:20:00;6.47;;;2.40;;
73642;SDS011;61938;48.652;9.292;2023-11-21T01:22:26;16.17;;;3.00;;
73642;SDS011;61938;48.652;9.292;2023-11-21T01:24:53;7.82;;;2.55;;
73642;SDS011;61938;48.652;9.292;2023-11-21T01:27:18;12.18;;;2.80;;
73642;SDS011;61938;48.652;9.292;2023-11-21T01:29:44;8.23;;;2.28;;
73642;SDS011;61938;48.652;9.292;2023-11-21T01:32:10;4.25;;;2.05;;
73642;SDS011;61938;48.652;9.292;2023-11-21T01:34:36;6.72;;;2.00;;
73642;SDS011;61938;48.652;9.292;2023-11-21T01:37:02;5.50;;;1.70;;
73642;SDS011;61938;48.652;9.292;2023-11-21T01:39:29;5.28;;;2.28;;
73642;SDS011;61938;48.652;9.292;2023-11-21T01:41:55;5.25;;;2.00;;
73642;SDS011;61938;48.652;9.292;2023-11-21T01:44:23;7.05;;;1.60;;
73642;SDS011;61938;48.652;9.292;2023-11-21T01:46:49;5.10;;;2.13;;
73642;SDS011;61938;48.652;9.292;2023-11-21T01:49:15;4.50;;;1.67;;
73642;SDS011;61938;48.652;9.292;2023-11-21T01:51:43;6.88;;;2.00;;
73642;SDS011;61938;48.652;9.292;2023-11-21T01:54:11;4.55;;;2.00;;
73642;SDS011;61938;48.652;9.292;2023-11-21T01:56:37;7.13;;;1.88;;
73642;SDS011;61938;48.652;9.292;2023-11-21T01:59:04;4.00;;;1.88;;
73642;SDS011;61938;48.652;9.292;2023-11-21T02:01:30;7.03;;;1.42;;
73642;SDS011;61938;48.652;9.292;2023-11-21T02:03:55;4.70;;;1.60;;
73642;SDS011;61938;48.652;9.292;2023-11-21T02:06:21;3.83;;;1.70;;
73642;SDS011;61938;48.652;9.292;2023-11-21T02:08:47;7.95;;;1.70;;
73642;SDS011;61938;48.652;9.292;2023-11-21T02:11:12;4.35;;;1.60;;
73642;SDS011;61938;48.652;9.292;2023-11-21T02:13:38;7.18;;;1.73;;
73642;SDS011;61938;48.652;9.292;2023-11-21T02:16:08;9.27;;;1.80;;
73642;SDS011;61938;48.652;9.292;2023-11-21T02:18:34;2.72;;;1.20;;
73642;SDS011;61938;48.652;9.292;2023-11-21T02:21:01;5.38;;;1.77;;
73642;SDS011;61938;48.652;9.292;2023-11-21T02:23:29;4.13;;;1.80;;
73642;SDS011;61938;48.652;9.292;2023-11-21T02:25:55;9.68;;;1.50;;
73642;SDS011;61938;48.652;9.292;2023-11-21T02:28:20;4.13;;;1.35;;
73642;SDS011;61938;48.652;9.292;2023-11-21T02:30:50;5.03;;;1.40;;
73642;SDS011;61938;48.652;9.292;2023-11-21T02:33:20;5.78;;;1.42;;
73642;SDS011;61938;48.652;9.292;2023-11-21T02:35:46;2.90;;;1.13;;
73642;SDS011;61938;48.652;9.292;2023-11-21T02:38:12;5.15;;;1.35;;
73642;SDS011;61938;48.652;9.292;2023-11-21T02:40:37;6.07;;;1.42;;
73642;SDS011;61938;48.652;9.292;2023-11-21T02:43:03;4.05;;;1.38;;
73642;SDS011;61938;48.652;9.292;2023-11-21T02:45:30;5.85;;;1.50;;
73642;SDS011;61938;48.652;9.292;2023-11-21T02:47:56;4.80;;;1.20;;
73642;SDS011;61938;48.652;9.292;2023-11-21T02:50:22;5.15;;;1.13;;
73642;SDS011;61938;48.652;9.292;2023-11-21T02:52:47;4.10;;;1.27;;
73642;SDS011;61938;48.652;9.292;2023-11-21T02:55:13;1.58;;;0.98;;
73642;SDS011;61938;48.652;9.292;2023-11-21T02:57:38;8.65;;;1.85;;
73642;SDS011;61938;48.652;9.292;2023-11-21T03:00:04;4.50;;;1.40;;
73642;SDS011;61938;48.652;9.292;2023-11-21T03:02:32;6.50;;;1.33;;
73642;SDS011;61938;48.652;9.292;2023-11-21T03:04:58;3.72;;;0.90;;
73642;SDS011;61938;48.652;9.292;2023-11-21T03:07:23;5.70;;;1.25;;
73642;SDS011;61938;48.652;9.292;2023-11-21T03:09:50;8.93;;;1.00;;
73642;SDS011;61938;48.652;9.292;2023-11-21T03:12:15;3.38;;;0.98;;
73642;SDS011;61938;48.652;9.292;2023-11-21T03:14:41;4.05;;;0.98;;
73642;SDS011;61938;48.652;9.292;2023-11-21T03:17:06;4.05;;;1.00;;
73642;SDS011;61938;48.652;9.292;2023-11-21T03:19:32;5.35;;;1.10;;
73642;SDS011;61938;48.652;9.292;2023-11-21T03:21:57;5.30;;;1.08;;
73642;SDS011;61938;48.652;9.292;2023-11-21T03:24:23;3.22;;;0.57;;
73642;SDS011;61938;48.652;9.292;2023-11-21T03:26:49;1.95;;;0.88;;
73642;SDS011;61938;48.652;9.292;2023-11-21T03:29:16;3.95;;;1.00;;
73642;SDS011;61938;48.652;9.292;2023-11-21T03:31:41;2.83;;;0.82;;
73642;SDS011;61938;48.652;9.292;2023-11-21T03:34:09;5.68;;;1.08;;
73642;SDS011;61938;48.652;9.292;2023-11-21T03:36:39;2.35;;;0.70;;
73642;SDS011;61938;48.652;9.292;2023-11-21T03:39:05;4.70;;;0.75;;
73642;SDS011;61938;48.652;9.292;2023-11-21T03:41:30;2.70;;;0.93;;
73642;SDS011;61938;48.652;9.292;2023-11-21T03:43:56;4.82;;;0.98;;
73642;SDS011;61938;48.652;9.292;2023-11-21T03:46:21;5.45;;;1.27;;
73642;SDS011;61938;48.652;9.292;2023-11-21T03:48:47;5.50;;;0.90;;
73642;SDS011;61938;48.652;9.292;2023-11-21T03:51:12;5.28;;;1.10;;
73642;SDS011;61938;48.652;9.292;2023-11-21T03:53:38;5.60;;;1.02;;
73642;SDS011;61938;48.652;9.292;2023-11-21T03:56:03;4.60;;;1.13;;
73642;SDS011;61938;48.652;9.292;2023-11-21T03:58:29;2.53;;;0.90;;
73642;SDS011;61938;48.652;9.292;2023-11-21T04:00:55;4.35;;;0.85;;
73642;SDS011;61938;48.652;9.292;2023-11-21T04:03:20;4.50;;;1.92;;
73642;SDS011;61938;48.652;9.292;2023-11-21T04:05:46;4.63;;;2.03;;
73642;SDS011;61938;48.652;9.292;2023-11-21T04:08:12;6.35;;;2.60;;
73642;SDS011;61938;48.652;9.292;2023-11-21T04:10:37;4.80;;;2.03;;
73642;SDS011;61938;48.652;9.292;2023-11-21T04:13:04;2.72;;;1.67;;
73642;SDS011;61938;48.652;9.292;2023-11-21T04:15:31;3.13;;;1.27;;
73642;SDS011;61938;48.652;9.292;2023-11-21T04:17:57;7.75;;;1.13;;
73642;SDS011;61938;48.652;9.292;2023-11-21T04:20:23;3.38;;;1.17;;
73642;SDS011;61938;48.652;9.292;2023-11-21T04:22:49;2.13;;;1.08;;
73642;SDS011;61938;48.652;9.292;2023-11-21T04:25:14;6.93;;;1.50;;
73642;SDS011;61938;48.652;9.292;2023-11-21T04:27:40;2.65;;;0.77;;
73642;SDS011;61938;48.652;9.292;2023-11-21T04:30:08;3.42;;;1.58;;
73642;SDS011;61938;48.652;9.292;2023-11-21T04:32:35;8.50;;;2.65;;
73642;SDS011;61938;48.652;9.292;2023-11-21T04:35:01;9.52;;;2.75;;
73642;SDS011;61938;48.652;9.292;2023-11-21T04:37:26;8.43;;;3.22;;
73642;SDS011;61938;48.652;9.292;2023-11-21T04:39:52;7.00;;;3.10;;
73642;SDS011;61938;48.652;9.292;2023-11-21T04:42:18;5.32;;;1.40;;
73642;SDS011;61938;48.652;9.292;2023-11-21T04:44:43;1.65;;;0.85;;
73642;SDS011;61938;48.652;9.292;2023-11-21T04:47:09;1.67;;;0.75;;
73642;SDS011;61938;48.652;9.292;2023-11-21T04:49:35;2.28;;;0.40;;
73642;SDS011;61938;48.652;9.292;2023-11-21T04:52:01;7.85;;;2.53;;
73642;SDS011;61938;48.652;9.292;2023-11-21T04:54:28;8.52;;;3.90;;
73642;SDS011;61938;48.652;9.292;2023-11-21T04:56:55;9.43;;;3.72;;
73642;SDS011;61938;48.652;9.292;2023-11-21T04:59:21;8.15;;;3.10;;
73642;SDS011;61938;48.652;9.292;2023-11-21T05:01:49;3.17;;;1.80;;
73642;SDS011;61938;48.652;9.292;2023-11-21T05:04:15;6.68;;;2.50;;
73642;SDS011;61938;48.652;9.292;2023-11-21T05:06:40;7.00;;;1.60;;
73642;SDS011;61938;48.652;9.292;2023-11-21T05:09:06;4.72;;;1.05;;
73642;SDS011;61938;48.652;9.292;2023-11-21T05:11:36;3.45;;;1.10;;
73642;SDS011;61938;48.652;9.292;2023-11-21T05:14:02;1.88;;;0.80;;
73642;SDS011;61938;48.652;9.292;2023-11-21T05:16:29;1.45;;;0.60;;
73642;SDS011;61938;48.652;9.292;2023-11-21T05:18:55;1.55;;;0.50;;
73642;SDS011;61938;48.652;9.292;2023-11-21T05:21:25;1.73;;;0.60;;
73642;SDS011;61938;48.652;9.292;2023-11-21T05:23:51;1.08;;;0.28;;
73642;SDS011;61938;48.652;9.292;2023-11-21T05:26:16;0.55;;;0.40;;
73642;SDS011;61938;48.652;9.292;2023-11-21T05:28:42;2.17;;;0.57;;
73642;SDS011;61938;48.652;9.292;2023-11-21T05:31:07;4.50;;;0.70;;
73642;SDS011;61938;48.652;9.292;2023-11-21T05:33:33;1.13;;;0.50;;
73642;SDS011;61938;48.652;9.292;2023-11-21T05:35:58;0.93;;;0.45;;
73642;SDS011;61938;48.652;9.292;2023-11-21T05:38:24;0.45;;;0.30;;
73642;SDS011;61938;48.652;9.292;2023-11-21T05:40:49;1.90;;;0.65;;
73642;SDS011;61938;48.652;9.292;2023-11-21T05:43:15;2.17;;;0.50;;
73642;SDS011;61938;48.652;9.292;2023-11-21T05:45:40;3.00;;;0.40;;
73642;SDS011;61938;48.652;9.292;2023-11-21T05:48:06;1.83;;;0.40;;
73642;SDS011;61938;48.652;9.292;2023-11-21T05:50:31;2.85;;;0.50;;
73642;SDS011;61938;48.652;9.292;2023-11-21T05:52:57;1.88;;;0.45;;
73642;SDS011;61938;48.652;9.292;2023-11-21T05:55:25;1.05;;;0.43;;
73642;SDS011;61938;48.652;9.292;2023-11-21T05:57:50;1.50;;;0.82;;
73642;SDS011;61938;48.652;9.292;2023-11-21T06:00:16;1.15;;;0.40;;
73642;SDS011;61938;48.652;9.292;2023-11-21T06:02:50;3.35;;;0.50;;
73642;SDS011;61938;48.652;9.292;2023-11-21T06:05:17;3.60;;;0.45;;
73642;SDS011;61938;48.652;9.292;2023-11-21T06:07:44;1.13;;;0.43;;
73642;SDS011;61938;48.652;9.292;2023-11-21T06:10:10;3.90;;;0.90;;
73642;SDS011;61938;48.652;9.292;2023-11-21T06:12:39;2.38;;;0.65;;
73642;SDS011;61938;48.652;9.292;2023-11-21T06:15:07;1.98;;;0.93;;
73642;SDS011;61938;48.652;9.292;2023-11-21T06:17:35;3.03;;;0.70;;
73642;SDS011;61938;48.652;9.292;2023-11-21T06:20:04;1.08;;;0.52;;
73642;SDS011;61938;48.652;9.292;2023-11-21T06:22:37;1.40;;;0.57;;
73642;SDS011;61938;48.652;9.292;2023-11-21T06:25:04;1.73;;;0.70;;
73642;SDS011;61938;48.652;9.292;2023-11-21T06:27:34;1.75;;;0.80;;
73642;SDS011;61938;48.652;9.292;2023-11-21T06:30:02;3.92;;;0.60;;
73642;SDS011;61938;48.652;9.292;2023-11-21T06:32:28;3.47;;;0.65;;
73642;SDS011;61938;48.652;9.292;2023-11-21T06:34:54;2.28;;;0.70;;
73642;SDS011;61938;48.652;9.292;2023-11-21T06:37:20;2.00;;;0.70;;
73642;SDS011;61938;48.652;9.292;2023-11-21T06:39:48;4.20;;;0.90;;
73642;SDS011;61938;48.652;9.292;2023-11-21T06:42:14;1.35;;;0.60;;
73642;SDS011;61938;48.652;9.292;2023-11-21T06:44:40;3.20;;;0.65;;
73642;SDS011;61938;48.652;9.292;2023-11-21T06:47:06;1.77;;;0.77;;
73642;SDS011;61938;48.652;9.292;2023-11-21T06:49:32;1.58;;;0.60;;
73642;SDS011;61938;48.652;9.292;2023-11-21T06:51:57;3.58;;;0.80;;
73642;SDS011;61938;48.652;9.292;2023-11-21T06:54:23;1.20;;;0.90;;
73642;SDS011;61938;48.652;9.292;2023-11-21T06:56:49;1.75;;;0.93;;
73642;SDS011;61938;48.652;9.292;2023-11-21T06:59:15;3.03;;;1.02;;
73642;SDS011;61938;48.652;9.292;2023-11-21T07:01:41;4.88;;;1.25;;
73642;SDS011;61938;48.652;9.292;2023-11-21T07:04:06;4.30;;;1.33;;
73642;SDS011;61938;48.652;9.292;2023-11-21T07:06:33;1.70;;;1.20;;
73642;SDS011;61938;48.652;9.292;2023-11-21T07:09:00;5.35;;;1.42;;
73642;SDS011;61938;48.652;9.292;2023-11-21T07:11:26;2.33;;;1.17;;
73642;SDS011;61938;48.652;9.292;2023-11-21T07:13:52;3.35;;;1.65;;
73642;SDS011;61938;48.652;9.292;2023-11-21T07:16:18;3.38;;;1.70;;
73642;SDS011;61938;48.652;9.292;2023-11-21T07:18:44;3.88;;;1.85;;
73642;SDS011;61938;48.652;9.292;2023-11-21T07:21:09;3.92;;;1.90;;
73642;SDS011;61938;48.652;9.292;2023-11-21T07:23:37;4.13;;;2.15;;
73642;SDS011;61938;48.652;9.292;2023-11-21T07:26:03;5.95;;;2.92;;
73642;SDS011;61938;48.652;9.292;2023-11-21T07:28:33;6.73;;;2.00;;
73642;SDS011;61938;48.652;9.292;2023-11-21T07:30:59;4.22;;;2.20;;
73642;SDS011;61938;48.652;9.292;2023-11-21T07:33:25;2.95;;;1.65;;
73642;SDS011;61938;48.652;9.292;2023-11-21T07:35:50;3.53;;;2.00;;
73642;SDS011;61938;48.652;9.292;2023-11-21T07:38:16;4.78;;;2.20;;
73642;SDS011;61938;48.652;9.292;2023-11-21T07:40:42;4.13;;;1.67;;
73642;SDS011;61938;48.652;9.292;2023-11-21T07:43:08;6.78;;;2.08;;
73642;SDS011;61938;48.652;9.292;2023-11-21T07:45:34;4.43;;;1.80;;
73642;SDS011;61938;48.652;9.292;2023-11-21T07:47:59;3.40;;;2.00;;
73642;SDS011;61938;48.652;9.292;2023-11-21T07:50:28;5.18;;;1.83;;
73642;SDS011;61938;48.652;9.292;2023-11-21T07:52:53;4.05;;;1.88;;
73642;SDS011;61938;48.652;9.292;2023-11-21T07:55:19;3.03;;;1.35;;
73642;SDS011;61938;48.652;9.292;2023-11-21T07:57:45;2.08;;;1.40;;
73642;SDS011;61938;48.652;9.292;2023-11-21T08:00:11;3.15;;;1.63;;
73642;SDS011;61938;48.652;9.292;2023-11-21T08:02:37;5.05;;;1.50;;
73642;SDS011;61938;48.652;9.292;2023-11-21T08:05:10;6.30;;;1.20;;
73642;SDS011;61938;48.652;9.292;2023-11-21T08:07:37;2.65;;;1.20;;
73642;SDS011;61938;48.652;9.292;2023-11-21T08:10:03;3.08;;;1.25;;
73642;SDS011;61938;48.652;9.292;2023-11-21T08:12:30;3.75;;;1.02;;
73642;SDS011;61938;48.652;9.292;2023-11-21T08:14:55;2.33;;;0.82;;
73642;SDS011;61938;48.652;9.292;2023-11-21T08:17:21;2.53;;;1.10;;
73642;SDS011;61938;48.652;9.292;2023-11-21T08:19:47;1.33;;;0.80;;
73642;SDS011;61938;48.652;9.292;2023-11-21T08:22:15;2.60;;;1.33;;
73642;SDS011;61938;48.652;9.292;2023-11-21T08:24:42;1.88;;;0.98;;
73642;SDS011;61938;48.652;9.292;2023-11-21T08:27:08;2.92;;;0.90;;
73642;SDS011;61938;48.652;9.292;2023-11-21T08:29:34;1.98;;;1.17;;
73642;SDS011;61938;48.652;9.292;2023-11-21T08:32:01;1.83;;;0.90;;
73642;SDS011;61938;48.652;9.292;2023-11-21T08:34:27;2.38;;;0.77;;
73642;SDS011;61938;48.652;9.292;2023-11-21T08:36:53;1.77;;;0.88;;
73642;SDS011;61938;48.652;9.292;2023-11-21T08:39:19;4.55;;;1.15;;
73642;SDS011;61938;48.652;9.292;2023-11-21T08:41:44;2.53;;;1.10;;
73642;SDS011;61938;48.652;9.292;2023-11-21T08:44:10;3.38;;;0.93;;
73642;SDS011;61938;48.652;9.292;2023-11-21T08:46:36;1.92;;;0.85;;
73642;SDS011;61938;48.652;9.292;2023-11-21T08:49:03;2.53;;;1.20;;
73642;SDS011;61938;48.652;9.292;2023-11-21T08:51:28;4.70;;;1.50;;
73642;SDS011;61938;48.652;9.292;2023-11-21T08:53:54;1.95;;;1.13;;
73642;SDS011;61938;48.652;9.292;2023-11-21T08:56:19;2.15;;;1.20;;
73642;SDS011;61938;48.652;9.292;2023-11-21T08:58:45;2.78;;;1.33;;
73642;SDS011;61938;48.652;9.292;2023-11-21T09:01:15;2.05;;;1.40;;
73642;SDS011;61938;48.652;9.292;2023-11-21T09:03:40;5.40;;;1.77;;
73642;SDS011;61938;48.652;9.292;2023-11-21T09:06:06;4.45;;;1.58;;
73642;SDS011;61938;48.652;9.292;2023-11-21T09:08:34;3.10;;;1.50;;
73642;SDS011;61938;48.652;9.292;2023-11-21T09:11:00;4.25;;;1.45;;
73642;SDS011;61938;48.652;9.292;2023-11-21T09:13:25;4.15;;;1.65;;
73642;SDS011;61938;48.652;9.292;2023-11-21T09:15:51;1.95;;;1.20;;
73642;SDS011;61938;48.652;9.292;2023-11-21T09:18:16;1.90;;;1.10;;
73642;SDS011;61938;48.652;9.292;2023-11-21T09:20:42;2.83;;;1.58;;
73642;SDS011;61938;48.652;9.292;2023-11-21T09:23:09;2.03;;;1.23;;
73642;SDS011;61938;48.652;9.292;2023-11-21T09:25:34;4.93;;;1.10;;
73642;SDS011;61938;48.652;9.292;2023-11-21T09:28:02;2.85;;;1.20;;
73642;SDS011;61938;48.652;9.292;2023-11-21T09:30:32;2.97;;;1.10;;
73642;SDS011;61938;48.652;9.292;2023-11-21T09:32:58;2.95;;;1.15;;
73642;SDS011;61938;48.652;9.292;2023-11-21T09:35:24;3.47;;;1.30;;
73642;SDS011;61938;48.652;9.292;2023-11-21T09:37:50;1.75;;;1.00;;
73642;SDS011;61938;48.652;9.292;2023-11-21T09:40:17;1.38;;;0.95;;
73642;SDS011;61938;48.652;9.292;2023-11-21T09:42:56;3.30;;;0.98;;
73642;SDS011;61938;48.652;9.292;2023-11-21T09:47:59;2.25;;;0.98;;
73642;SDS011;61938;48.652;9.292;2023-11-21T09:50:25;2.63;;;1.10;;
73642;SDS011;61938;48.652;9.292;2023-11-21T09:53:00;2.45;;;1.15;;
73642;SDS011;61938;48.652;9.292;2023-11-21T09:55:44;4.05;;;0.90;;
73642;SDS011;61938;48.652;9.292;2023-11-21T09:58:11;1.73;;;0.90;;
73642;SDS011;61938;48.652;9.292;2023-11-21T10:00:41;1.10;;;0.80;;
73642;SDS011;61938;48.652;9.292;2023-11-21T10:03:08;2.80;;;1.00;;
73642;SDS011;61938;48.652;9.292;2023-11-21T10:05:34;3.40;;;1.10;;
73642;SDS011;61938;48.652;9.292;2023-11-21T10:08:00;3.78;;;1.25;;
73642;SDS011;61938;48.652;9.292;2023-11-21T10:10:27;3.70;;;1.15;;
73642;SDS011;61938;48.652;9.292;2023-11-21T10:12:55;7.40;;;0.90;;
73642;SDS011;61938;48.652;9.292;2023-11-21T10:15:22;3.53;;;1.38;;
73642;SDS011;61938;48.652;9.292;2023-11-21T10:17:50;1.60;;;1.13;;
73642;SDS011;61938;48.652;9.292;2023-11-21T10:20:18;2.30;;;0.90;;
73642;SDS011;61938;48.652;9.292;2023-11-21T10:22:49;2.47;;;0.75;;
73642;SDS011;61938;48.652;9.292;2023-11-21T10:25:15;1.27;;;0.70;;
73642;SDS011;61938;48.652;9.292;2023-11-21T10:27:41;2.40;;;1.00;;
73642;SDS011;61938;48.652;9.292;2023-11-21T10:30:08;2.15;;;1.10;;
73642;SDS011;61938;48.652;9.292;2023-11-21T10:32:37;1.45;;;1.00;;
73642;SDS011;61938;48.652;9.292;2023-11-21T10:35:03;1.55;;;1.10;;
73642;SDS011;61938;48.652;9.292;2023-11-21T10:40:01;3.38;;;1.05;;
73642;SDS011;61938;48.652;9.292;2023-11-21T10:42:26;3.70;;;1.00;;
73642;SDS011;61938;48.652;9.292;2023-11-21T10:44:52;3.92;;;1.00;;
73642;SDS011;61938;48.652;9.292;2023-11-21T10:47:19;3.22;;;1.05;;
73642;SDS011;61938;48.652;9.292;2023-11-21T10:49:47;3.53;;;1.00;;
73642;SDS011;61938;48.652;9.292;2023-11-21T10:52:13;1.63;;;0.60;;
73642;SDS011;61938;48.652;9.292;2023-11-21T10:54:42;3.05;;;0.60;;
73642;SDS011;61938;48.652;9.292;2023-11-21T10:57:08;6.03;;;0.50;;
73642;SDS011;61938;48.652;9.292;2023-11-21T10:59:35;1.45;;;0.60;;
73642;SDS011;61938;48.652;9.292;2023-11-21T11:02:07;1.35;;;0.40;;
73642;SDS011;61938;48.652;9.292;2023-11-21T11:04:53;2.25;;;0.40;;
73642;SDS011;61938;48.652;9.292;2023-11-21T11:07:26;1.27;;;0.60;;
73642;SDS011;61938;48.652;9.292;2023-11-21T11:09:53;1.73;;;0.50;;
73642;SDS011;61938;48.652;9.292;2023-11-21T11:12:19;1.67;;;0.60;;
73642;SDS011;61938;48.652;9.292;2023-11-21T11:14:45;1.95;;;0.80;;
73642;SDS011;61938;48.652;9.292;2023-11-21T11:17:13;1.23;;;0.80;;
73642;SDS011;61938;48.652;9.292;2023-11-21T11:19:38;2.97;;;1.25;;
73642;SDS011;61938;48.652;9.292;2023-11-21T11:28:03;3.97;;;1.20;;
73642;SDS011;61938;48.652;9.292;2023-11-21T11:30:41;3.97;;;1.20;;
73642;SDS011;61938;48.652;9.292;2023-11-21T11:33:21;5.57;;;1.85;;
73642;SDS011;61938;48.652;9.292;2023-11-21T11:36:15;4.07;;;1.67;;
73642;SDS011;61938;48.652;9.292;2023-11-21T11:38:45;2.75;;;1.77;;
73642;SDS011;61938;48.652;9.292;2023-11-21T11:41:11;1.85;;;1.30;;
73642;SDS011;61938;48.652;9.292;2023-11-21T11:43:37;3.47;;;1.20;;
73642;SDS011;61938;48.652;9.292;2023-11-21T11:46:09;7.15;;;1.33;;
73642;SDS011;61938;48.652;9.292;2023-11-21T11:48:39;2.60;;;1.50;;
73642;SDS011;61938;48.652;9.292;2023-11-21T11:51:05;3.75;;;1.60;;
73642;SDS011;61938;48.652;9.292;2023-11-21T11:53:46;5.35;;;2.05;;
73642;SDS011;61938;48.652;9.292;2023-11-21T11:56:19;4.20;;;2.28;;
73642;SDS011;61938;48.652;9.292;2023-11-21T11:58:56;2.55;;;1.70;;
73642;SDS011;61938;48.652;9.292;2023-11-21T12:01:27;2.95;;;1.50;;
73642;SDS011;61938;48.652;9.292;2023-11-21T12:06:56;2.47;;;1.60;;
73642;SDS011;61938;48.652;9.292;2023-11-21T12:09:25;2.13;;;1.10;;
73642;SDS011;61938;48.652;9.292;2023-11-21T12:11:51;4.13;;;1.80;;
73642;SDS011;61938;48.652;9.292;2023-11-21T12:14:17;2.53;;;1.30;;
73642;SDS011;61938;48.652;9.292;2023-11-21T12:16:43;3.75;;;1.83;;
73642;SDS011;61938;48.652;9.292;2023-11-21T12:19:12;4.38;;;2.30;;
73642;SDS011;61938;48.652;9.292;2023-11-21T12:21:38;3.75;;;1.60;;
73642;SDS011;61938;48.652;9.292;2023-11-21T12:24:06;2.03;;;1.30;;
73642;SDS011;61938;48.652;9.292;2023-11-21T12:26:33;3.15;;;1.33;;
73642;SDS011;61938;48.652;9.292;2023-11-21T12:29:00;2.28;;;1.45;;
73642;SDS011;61938;48.652;9.292;2023-11-21T12:31:26;2.50;;;1.50;;
73642;SDS011;61938;48.652;9.292;2023-11-21T12:33:53;2.13;;;1.40;;
73642;SDS011;61938;48.652;9.292;2023-11-21T12:36:19;4.65;;;1.58;;
73642;SDS011;61938;48.652;9.292;2023-11-21T12:38:44;2.05;;;1.20;;
73642;SDS011;61938;48.652;9.292;2023-11-21T12:41:10;2.90;;;1.38;;
73642;SDS011;61938;48.652;9.292;2023-11-21T12:43:36;2.00;;;1.25;;
73642;SDS011;61938;48.652;9.292;2023-11-21T12:46:07;2.25;;;1.13;;
73642;SDS011;61938;48.652;9.292;2023-11-21T12:48:37;4.40;;;1.33;;
73642;SDS011;61938;48.652;9.292;2023-11-21T12:51:09;2.22;;;1.05;;
73642;SDS011;61938;48.652;9.292;2023-11-21T12:53:44;2.00;;;1.23;;
73642;SDS011;61938;48.652;9.292;2023-11-21T12:56:10;5.32;;;1.65;;
73642;SDS011;61938;48.652;9.292;2023-11-21T12:58:37;2.65;;;1.48;;
73642;SDS011;61938;48.652;9.292;2023-11-21T13:01:04;3.25;;;1.73;;
73642;SDS011;61938;48.652;9.292;2023-11-21T13:03:36;3.35;;;2.10;;
73642;SDS011;61938;48.652;9.292;2023-11-21T13:06:03;4.50;;;1.88;;
73642;SDS011;61938;48.652;9.292;2023-11-21T13:08:30;3.67;;;1.65;;
73642;SDS011;61938;48.652;9.292;2023-11-21T13:10:56;2.78;;;1.42;;
73642;SDS011;61938;48.652;9.292;2023-11-21T13:13:22;3.03;;;1.40;;
73642;SDS011;61938;48.652;9.292;2023-11-21T13:18:15;2.50;;;1.15;;
73642;SDS011;61938;48.652;9.292;2023-11-21T13:20:42;3.30;;;1.40;;
73642;SDS011;61938;48.652;9.292;2023-11-21T13:23:08;1.95;;;1.30;;
73642;SDS011;61938;48.652;9.292;2023-11-21T13:25:37;1.55;;;1.20;;
73642;SDS011;61938;48.652;9.292;2023-11-21T13:28:05;1.88;;;1.20;;
73642;SDS011;61938;48.652;9.292;2023-11-21T13:30:31;2.28;;;1.48;;
73642;SDS011;61938;48.652;9.292;2023-11-21T13:33:00;4.32;;;1.92;;
73642;SDS011;61938;48.652;9.292;2023-11-21T13:35:27;2.55;;;2.00;;
73642;SDS011;61938;48.652;9.292;2023-11-21T13:38:09;3.58;;;2.42;;
73642;SDS011;61938;48.652;9.292;2023-11-21T13:40:37;3.83;;;2.60;;
73642;SDS011;61938;48.652;9.292;2023-11-21T13:43:15;4.85;;;2.53;;
73642;SDS011;61938;48.652;9.292;2023-11-21T13:45:44;5.95;;;2.80;;
73642;SDS011;61938;48.652;9.292;2023-11-21T13:48:11;5.35;;;2.40;;
73642;SDS011;61938;48.652;9.292;2023-11-21T13:50:44;5.30;;;2.40;;
73642;SDS011;61938;48.652;9.292;2023-11-21T13:53:13;4.45;;;2.70;;
73642;SDS011;61938;48.652;9.292;2023-11-21T13:55:47;4.88;;;2.88;;
73642;SDS011;61938;48.652;9.292;2023-11-21T13:58:14;7.50;;;3.35;;
73642;SDS011;61938;48.652;9.292;2023-11-21T14:00:44;5.18;;;3.40;;
73642;SDS011;61938;48.652;9.292;2023-11-21T14:03:11;4.38;;;3.00;;
73642;SDS011;61938;48.652;9.292;2023-11-21T14:05:50;5.93;;;3.13;;
73642;SDS011;61938;48.652;9.292;2023-11-21T14:08:21;6.72;;;3.25;;
73642;SDS011;61938;48.652;9.292;2023-11-21T14:10:48;5.00;;;3.38;;
73642;SDS011;61938;48.652;9.292;2023-11-21T14:13:22;14.63;;;4.38;;
73642;SDS011;61938;48.652;9.292;2023-11-21T14:15:53;5.60;;;2.78;;
73642;SDS011;61938;48.652;9.292;2023-11-21T14:18:27;5.00;;;3.25;;
73642;SDS011;61938;48.652;9.292;2023-11-21T14:21:00;5.15;;;2.60;;
73642;SDS011;61938;48.652;9.292;2023-11-21T14:23:26;6.93;;;3.03;;
73642;SDS011;61938;48.652;9.292;2023-11-21T14:25:53;6.13;;;2.90;;
73642;SDS011;61938;48.652;9.292;2023-11-21T14:28:18;6.38;;;3.15;;
73642;SDS011;61938;48.652;9.292;2023-11-21T14:30:45;4.38;;;2.72;;
73642;SDS011;61938;48.652;9.292;2023-11-21T14:33:11;6.57;;;2.50;;
73642;SDS011;61938;48.652;9.292;2023-11-21T14:35:37;2.60;;;1.73;;
73642;SDS011;61938;48.652;9.292;2023-11-21T14:38:02;3.45;;;2.03;;
73642;SDS011;61938;48.652;9.292;2023-11-21T14:40:30;2.80;;;1.83;;
73642;SDS011;61938;48.652;9.292;2023-11-21T14:42:59;3.03;;;2.13;;
73642;SDS011;61938;48.652;9.292;2023-11-21T14:45:25;3.63;;;2.42;;
73642;SDS011;61938;48.652;9.292;2023-11-21T14:47:51;3.05;;;1.98;;
73642;SDS011;61938;48.652;9.292;2023-11-21T14:50:35;6.30;;;2.50;;
73642;SDS011;61938;48.652;9.292;2023-11-21T14:53:07;6.35;;;3.50;;
73642;SDS011;61938;48.652;9.292;2023-11-21T14:55:37;4.15;;;2.50;;
73642;SDS011;61938;48.652;9.292;2023-11-21T14:58:18;7.82;;;3.05;;
73642;SDS011;61938;48.652;9.292;2023-11-21T15:00:52;4.53;;;3.00;;
73642;SDS011;61938;48.652;9.292;2023-11-21T15:03:25;6.53;;;2.63;;
73642;SDS011;61938;48.652;9.292;2023-11-21T15:05:57;3.40;;;2.58;;